Flight Track Log - Related Links

Times and Time Zones

All times are in EDT time to prevent confusion due to time zone crossing. See the SWA3924 flight status page for this flight to view local times or setup timezone preferences in your user account.

Time Position Orientation Groundspeed Altitude Reporting Facility
EDT Latitude Longitude Course Direction KTS MPH feet Rate Location/Type
Wed 01:13:35 PM 28.4000 -81.3000 270° West 162 186 800  Level Orlando TRACON
Wed 01:14:24 PM 28.3667 -81.3167 204° Southwest 200 230 2,300 2,878 Climbing Orlando TRACON
Wed 01:16:51 PM 28.3386 -81.4989 260° West 280 322 10,200 3,014 Climbing Jacksonville Center
Wed 01:17:51 PM 28.3542 -81.5953 280° West 292 336 12,700 2,529 Climbing Jacksonville Center
Wed 01:18:52 PM 28.3719 -81.7083 280° West 335 386 15,300 2,678 Climbing Jacksonville Center
Wed 01:19:00 PM 28.4167 -81.9675 270° West  Level FlightAware Approximate
Wed 01:19:52 PM 28.3917 -81.8236 281° West 364 419 18,100  Level Jacksonville Center
Wed 01:20:52 PM 28.4092 -81.9344 280° West 388 447 20,900 2,650 Climbing Jacksonville Center
Wed 01:21:52 PM 28.4331 -82.0569 283° West 393 452 23,400 2,420 Climbing Jacksonville Center
Wed 01:22:51 PM 28.4714 -82.1747 290° West 398 458 25,700 2,078 Climbing Jacksonville Center
Wed 01:24:00 PM 28.4338 -82.2953 250° West  Level FlightAware Approximate
Wed 01:24:51 PM 28.6475 -82.3436 250° West 398 458 29,600  Level Jacksonville Center
Wed 01:25:52 PM 28.7439 -82.4167 326° Northwest 405 466 30,000 595 Climbing Jacksonville Center
Wed 01:26:52 PM 28.8442 -82.4872 328° Northwest 417 480 30,800 1,210 Climbing Jacksonville Center
Wed 01:27:51 PM 28.9447 -82.5603 328° Northwest 422 486 32,400 1,815 Climbing Jacksonville Center
Wed 01:28:51 PM 29.0386 -82.6336 326° Northwest 422 486 34,400 2,000 Climbing Jacksonville Center
Wed 01:29:51 PM 29.1350 -82.7047 327° Northwest 416 479 36,400 1,800 Climbing Jacksonville Center
Wed 01:30:51 PM 29.2247 -82.7736 326° Northwest 409 471 38,000 800 Climbing Jacksonville Center
Wed 01:31:51 PM 29.3167 -82.8403 328° Northwest 398 458 38,000  Level Jacksonville Center
Wed 01:32:52 PM 29.4064 -82.9069 327° Northwest 393 452 38,000  Level Jacksonville Center
Wed 01:33:51 PM 29.5044 -82.9808 327° Northwest 393 452 38,000  Level Jacksonville Center
Wed 01:34:51 PM 29.5961 -83.0478 328° Northwest 391 450 38,000  Level Jacksonville Center
Wed 01:35:52 PM 29.6986 -83.0983 337° Northwest 391 450 38,000  Level Jacksonville Center
Wed 01:36:51 PM 29.7986 -83.1439 338° Northwest 391 450 38,000  Level Jacksonville Center
Wed 01:37:51 PM 29.8967 -83.1872 339° North 391 450 38,000  Level Jacksonville Center
Wed 01:38:52 PM 29.9989 -83.2381 337° Northwest 391 450 38,000  Level Jacksonville Center
Wed 01:39:51 PM 30.0989 -83.2839 338° Northwest 391 450 38,000  Level Jacksonville Center
Wed 01:40:51 PM 30.2011 -83.3300 339° North 391 450 38,000  Level Jacksonville Center
Wed 01:41:51 PM 30.3011 -83.3761 338° Northwest 391 450 38,000  Level Jacksonville Center
Wed 01:42:51 PM 30.4011 -83.4225 338° Northwest 391 450 38,000  Level Jacksonville Center
Wed 01:43:51 PM 30.5011 -83.4689 338° Northwest 391 450 38,000  Level Jacksonville Center
Wed 01:44:52 PM 30.6033 -83.5178 338° Northwest 391 450 38,000  Level Jacksonville Center
Wed 01:45:52 PM 30.7011 -83.5642 338° Northwest 391 450 38,000  Level Jacksonville Center
Wed 01:46:51 PM 30.7989 -83.6133 337° Northwest 385 443 38,000  Level Jacksonville Center
Wed 01:47:52 PM 30.9011 -83.6575 340° North 385 443 38,000  Level Jacksonville Center
Wed 01:48:51 PM 30.9989 -83.7069 337° Northwest 385 443 38,000  Level Jacksonville Center
Wed 01:49:52 PM 31.1031 -83.7564 338° Northwest 390 449 38,000  Level Jacksonville Center
Wed 01:50:52 PM 31.2008 -83.8058 337° Northwest 390 449 38,000  Level Jacksonville Center
Wed 01:53:17 PM 31.4439 -83.9219 338° Northwest 375 432 38,000  Level Atlanta Center
Wed 01:54:17 PM 31.5442 -83.9683 338° Northwest 375 432 38,000  Level Atlanta Center
Wed 01:56:17 PM 31.7675 -84.0169 350° North 397 457 38,000  Level Atlanta Center
Wed 01:57:17 PM 31.8761 -84.0389 350° North 403 464 38,000 200 Level Atlanta Center
Wed 01:58:17 PM 31.9867 -84.0633 349° North 403 464 38,400 800 Climbing Atlanta Center
Wed 01:59:17 PM 32.0847 -84.0831 350° North 398 458 39,600 800 Climbing Atlanta Center
Wed 02:00:17 PM 32.1911 -84.1100 348° North 392 451 40,000 200 Climbing Atlanta Center
Wed 02:01:17 PM 32.2975 -84.1322 350° North 392 451 40,000  Level Atlanta Center
Wed 02:02:17 PM 32.4083 -84.1569 349° North 392 451 40,000  Level Atlanta Center
Wed 02:03:17 PM 32.5167 -84.1817 349° North 392 451 40,000  Level Atlanta Center
Wed 02:04:17 PM 32.6231 -84.2067 349° North 392 451 40,000  Level Atlanta Center
Wed 02:05:17 PM 32.7294 -84.2339 348° North 392 451 40,000  Level Atlanta Center
Wed 02:06:17 PM 32.8528 -84.2589 350° North 392 451 40,000  Level Atlanta Center
Wed 02:07:17 PM 32.9611 -84.2839 349° North 392 451 40,000  Level Atlanta Center
Wed 02:08:17 PM 33.0739 -84.3089 349° North 392 451 40,000  Level Atlanta Center
Wed 02:09:17 PM 33.1822 -84.3342 349° North 399 459 40,000  Level Atlanta Center
Wed 02:10:17 PM 33.2928 -84.3594 349° North 399 459 40,000  Level Atlanta Center
Wed 02:11:17 PM 33.4056 -84.3847 349° North 399 459 40,000  Level Atlanta Center
Wed 02:12:17 PM 33.5161 -84.4100 349° North 399 459 40,000  Level Atlanta Center
Wed 02:13:17 PM 33.6286 -84.4381 348° North 404 465 40,000  Level Atlanta Center
Wed 02:14:17 PM 33.7372 -84.4833 341° North 399 459 40,000  Level Atlanta Center
Wed 02:15:17 PM 33.8350 -84.5314 338° Northwest 393 452 40,000  Level Atlanta Center
Wed 02:16:17 PM 33.9372 -84.5747 341° North 393 452 40,000  Level Atlanta Center
Wed 02:17:17 PM 34.0372 -84.6178 340° North 387 445 40,000  Level Atlanta Center
Wed 02:18:17 PM 34.1475 -84.6664 340° North 394 453 40,000  Level Atlanta Center
Wed 02:19:17 PM 34.2475 -84.7122 339° North 401 461 40,000 -300 Level Atlanta Center
Wed 02:20:17 PM 34.3367 -84.7758 330° Northwest 379 436 39,400 -800 Descending Atlanta Center
Wed 02:21:17 PM 34.4283 -84.8422 329° Northwest 374 430 38,400 -1,000 Descending Atlanta Center
Wed 02:22:17 PM 34.5236 -84.9161 327° Northwest 401 461 37,400 -950 Descending Atlanta Center
Wed 02:23:17 PM 34.6214 -84.9878 329° Northwest 407 468 36,500 -900 Descending Atlanta Center
Wed 02:24:17 PM 34.7147 -85.0622 327° Northwest 407 468 35,600 -950 Descending Atlanta Center
Wed 02:25:17 PM 34.8161 -85.1419 327° Northwest 418 481 34,600 -1,266 Descending Atlanta Center
Wed 02:28:33 PM 35.1158 -85.3742 328° Northwest 383 441 30,200 -1,547 Descending Memphis Center
Wed 02:29:33 PM 35.1919 -85.4508 321° Northwest 362 417 28,000 -2,200 Descending Memphis Center
Wed 02:30:33 PM 35.2556 -85.5311 314° West 340 391 25,800 -2,250 Descending Memphis Center
Wed 02:31:33 PM 35.3192 -85.6114 314° West 328 377 23,500 -2,300 Descending Memphis Center
Wed 02:32:33 PM 35.3783 -85.6869 314° West 323 372 21,200 -2,000 Descending Memphis Center
Wed 02:33:33 PM 35.4375 -85.7625 314° West 323 372 19,500 -1,600 Descending Memphis Center
Wed 02:34:33 PM 35.4989 -85.8458 312° West 311 358 18,000 -1,600 Descending Memphis Center
Wed 02:35:33 PM 35.5556 -85.9167 315° West 299 344 16,300 -1,600 Descending Memphis Center
Wed 02:36:33 PM 35.6061 -85.9881 311° West 299 344 14,800 -1,400 Descending Memphis Center
Wed 02:37:33 PM 35.6542 -86.0469 315° West 281 323 13,500 -1,500 Descending Memphis Center
Wed 02:38:33 PM 35.7022 -86.1133 312° West 275 316 11,800 -1,800 Descending Memphis Center
Wed 02:39:33 PM 35.7383 -86.1958 298° West 270 311 9,900 -1,650 Descending Memphis Center
Wed 02:40:33 PM 35.7742 -86.2708 301° West 259 298 8,500 -1,350 Descending Memphis Center
Wed 02:41:33 PM 35.8081 -86.3486 298° West 259 298 7,200 -1,400 Descending Memphis Center
Wed 02:42:33 PM 35.8442 -86.4339 298° West 254 292 5,700 -1,100 Descending Memphis Center
Wed 02:43:33 PM 35.8736 -86.5067 297° West 254 292 5,000 -350 Descending Memphis Center
Wed 02:44:33 PM 35.8961 -86.5644 296° West 224 258 5,000 -200 Level Memphis Center
Wed 02:45:33 PM 35.9167 -86.6225 294° West 198 228 4,600 -750 Descending Memphis Center
Wed 02:46:33 PM 35.9308 -86.6733 289° West 170 196 3,500 -900 Descending Memphis Center
Wed 02:47:33 PM 35.9489 -86.7236 294° West 160 184 2,800 -500 Descending Memphis Center
Wed 02:48:33 PM 35.9947 -86.7164 North 133 153 2,500 -350 Descending Memphis Center
Wed 02:49:33 PM 36.0378 -86.6992 18° North 151 174 2,100 -550 Descending Memphis Center
Wed 02:50:33 PM 36.0769 -86.6819 20° North 151 174 1,400 -700 Descending Memphis Center
Wed 02:51:33 PM 36.1078 -86.6678 20° North 139 160 700 -700 Descending Memphis Center
Wed 02:53:00 PM 36.1167 -86.6667 345° North  Level FlightAware Approximate
Wed 03:00:00 PM 36.1245 -86.6782 345° North  Level Estimated
Wed 03:01:00 PM 36.1245 -86.6782 345° North  Level Estimated
Wed 03:02:00 PM 36.1245 -86.6782 345° North  Level Estimated
Wed 03:03:00 PM 36.1245 -86.6782 345° North  Level Estimated

Login

Don't have an account? Register now (free) for customized features, flight alerts, and more!